createdAt,value
2023-04-17T00:01:09.686Z,12.93
2023-04-17T00:03:37.841Z,12.03
2023-04-17T00:06:05.303Z,12.43
2023-04-17T00:08:33.892Z,11.77
2023-04-17T00:11:07.705Z,12.87
2023-04-17T00:13:35.796Z,12.33
2023-04-17T00:16:02.862Z,12.47
2023-04-17T00:18:29.739Z,12.40
2023-04-17T00:20:56.608Z,11.80
2023-04-17T00:23:23.421Z,11.80
2023-04-17T00:25:50.154Z,9.57
2023-04-17T00:28:16.825Z,10.73
2023-04-17T00:30:43.579Z,10.43
2023-04-17T00:33:10.319Z,11.20
2023-04-17T00:35:36.979Z,10.73
2023-04-17T00:38:03.960Z,12.80
2023-04-17T00:40:31.201Z,8.33
2023-04-17T00:43:01.750Z,8.63
2023-04-17T00:45:29.637Z,8.87
2023-04-17T00:47:58.523Z,8.57
2023-04-17T00:50:27.333Z,7.97
2023-04-17T00:52:54.958Z,9.33
2023-04-17T00:55:21.858Z,7.73
2023-04-17T00:57:51.920Z,8.87
2023-04-17T01:00:18.750Z,8.87
2023-04-17T01:02:46.814Z,8.17
2023-04-17T01:05:14.274Z,7.27
2023-04-17T01:07:41.944Z,7.70
2023-04-17T01:10:09.409Z,8.10
2023-04-17T01:12:36.558Z,7.67
2023-04-17T01:15:03.880Z,7.87
2023-04-17T01:17:31.578Z,7.63
2023-04-17T01:19:58.447Z,7.30
2023-04-17T01:22:25.674Z,8.10
2023-04-17T01:24:56.687Z,8.03
2023-04-17T01:27:25.801Z,7.17
2023-04-17T01:29:52.545Z,7.90
2023-04-17T01:32:19.710Z,7.90
2023-04-17T01:34:46.783Z,8.17
2023-04-17T01:37:13.504Z,7.90
2023-04-17T01:39:40.929Z,7.20
2023-04-17T01:42:07.741Z,7.93
2023-04-17T01:44:34.522Z,7.80
2023-04-17T01:47:01.181Z,8.03
2023-04-17T01:49:28.085Z,7.67
2023-04-17T01:51:54.758Z,6.97
2023-04-17T01:54:22.292Z,8.27
2023-04-17T01:56:48.940Z,8.63
2023-04-17T01:59:15.891Z,7.50
2023-04-17T02:01:42.670Z,8.00
2023-04-17T02:04:09.554Z,9.03
2023-04-17T02:06:36.453Z,8.93
2023-04-17T02:09:03.886Z,8.47
2023-04-17T02:11:30.607Z,8.80
2023-04-17T02:13:57.318Z,8.83
2023-04-17T02:16:24.162Z,8.87
2023-04-17T02:18:51.710Z,9.20
2023-04-17T02:21:18.656Z,9.23
2023-04-17T02:23:45.433Z,8.70
2023-04-17T02:26:12.367Z,8.87
2023-04-17T02:28:39.415Z,9.50
2023-04-17T02:31:08.421Z,9.67
2023-04-17T02:33:36.683Z,9.63
2023-04-17T02:36:04.524Z,10.60
2023-04-17T02:38:37.797Z,11.00
2023-04-17T02:41:05.362Z,10.10
2023-04-17T02:43:32.913Z,11.53
2023-04-17T02:45:59.707Z,11.33
2023-04-17T02:48:27.239Z,11.67
2023-04-17T02:50:53.981Z,12.70
2023-04-17T02:53:21.351Z,12.60
2023-04-17T02:55:48.922Z,11.83
2023-04-17T02:58:18.008Z,12.53
2023-04-17T03:00:44.682Z,12.67
2023-04-17T03:03:15.299Z,12.67
2023-04-17T03:05:42.150Z,13.07
2023-04-17T03:08:09.434Z,12.00
2023-04-17T03:10:44.177Z,13.60
2023-04-17T03:13:10.905Z,14.00
2023-04-17T03:15:37.572Z,12.27
2023-04-17T03:18:04.494Z,13.13
2023-04-17T03:20:31.166Z,13.23
2023-04-17T03:22:57.983Z,13.43
2023-04-17T03:25:24.656Z,12.33
2023-04-17T03:27:56.262Z,12.83
2023-04-17T03:30:28.222Z,13.30
2023-04-17T03:32:57.557Z,13.40
2023-04-17T03:35:24.874Z,12.60
2023-04-17T03:37:51.594Z,12.97
2023-04-17T03:40:18.661Z,12.97
2023-04-17T03:42:46.725Z,12.60
2023-04-17T03:45:13.462Z,12.83
2023-04-17T03:47:40.493Z,12.40
2023-04-17T03:50:08.036Z,12.70
2023-04-17T03:52:39.817Z,13.50
2023-04-17T03:55:07.314Z,13.40
2023-04-17T03:57:34.217Z,12.77
2023-04-17T04:00:00.949Z,12.60
2023-04-17T04:02:34.445Z,13.23
2023-04-17T04:05:01.343Z,15.33
2023-04-17T04:07:28.089Z,14.23
2023-04-17T04:09:55.856Z,13.87
2023-04-17T04:12:23.117Z,12.93
2023-04-17T04:14:49.871Z,13.33
2023-04-17T04:17:16.828Z,13.00
2023-04-17T04:19:43.809Z,13.47
2023-04-17T04:22:13.526Z,13.63
2023-04-17T04:24:47.340Z,13.00
2023-04-17T04:27:18.297Z,14.50
2023-04-17T04:29:48.716Z,12.83
2023-04-17T04:32:17.131Z,12.80
2023-04-17T04:34:46.173Z,13.50
2023-04-17T04:37:16.129Z,13.47
2023-04-17T04:39:47.120Z,13.03
2023-04-17T04:42:21.848Z,13.30
2023-04-17T04:44:56.962Z,14.40
2023-04-17T04:47:27.281Z,13.03
2023-04-17T04:49:54.479Z,14.13
2023-04-17T04:52:22.038Z,15.57
2023-04-17T04:54:51.441Z,13.03
2023-04-17T04:57:18.510Z,13.63
2023-04-17T04:59:47.326Z,13.50
2023-04-17T05:02:26.206Z,13.00
2023-04-17T05:04:53.471Z,12.80
2023-04-17T05:07:20.661Z,13.57
2023-04-17T05:09:47.435Z,13.13
2023-04-17T05:12:16.161Z,12.83
2023-04-17T05:14:44.013Z,12.23
2023-04-17T05:17:10.885Z,12.90
2023-04-17T05:19:38.508Z,12.53
2023-04-17T05:22:08.477Z,12.60
2023-04-17T05:24:41.662Z,12.47
2023-04-17T05:27:09.511Z,12.03
2023-04-17T05:29:37.530Z,12.67
2023-04-17T05:32:04.419Z,13.00
2023-04-17T05:34:49.290Z,12.30
2023-04-17T05:37:18.998Z,12.33
2023-04-17T05:39:45.801Z,12.40
2023-04-17T05:42:12.458Z,14.23
2023-04-17T05:44:39.990Z,12.63
2023-04-17T05:47:07.650Z,12.50
2023-04-17T05:49:34.367Z,12.90
2023-04-17T05:52:01.109Z,12.40
2023-04-17T05:54:30.151Z,13.07
2023-04-17T05:56:57.797Z,13.20
2023-04-17T05:59:25.211Z,12.60
2023-04-17T06:01:52.422Z,13.13
2023-04-17T06:04:21.863Z,13.10
2023-04-17T06:06:49.903Z,13.13
2023-04-17T06:09:17.057Z,11.63
2023-04-17T06:11:43.726Z,13.73
2023-04-17T06:14:10.914Z,12.30
2023-04-17T06:16:38.556Z,13.27
2023-04-17T06:19:05.481Z,13.13
2023-04-17T06:21:32.466Z,11.40
2023-04-17T06:24:00.750Z,12.80
2023-04-17T06:26:27.467Z,12.17
2023-04-17T06:28:54.771Z,12.17
2023-04-17T06:31:23.206Z,12.10
2023-04-17T06:33:50.830Z,11.80
2023-04-17T06:36:20.299Z,11.70
2023-04-17T06:38:49.000Z,11.70
2023-04-17T06:41:17.399Z,12.13
2023-04-17T06:43:44.442Z,11.23
2023-04-17T06:46:13.641Z,12.10
2023-04-17T06:48:40.345Z,12.80
2023-04-17T06:51:07.090Z,12.17
2023-04-17T06:53:33.902Z,12.47
2023-04-17T06:56:00.566Z,12.73
2023-04-17T06:58:27.283Z,13.63
2023-04-17T07:00:54.111Z,12.10
2023-04-17T07:03:20.924Z,13.00
2023-04-17T07:05:48.803Z,12.70
2023-04-17T07:08:15.872Z,12.07
2023-04-17T07:10:42.566Z,12.77
2023-04-17T07:13:09.308Z,12.97
2023-04-17T07:15:36.030Z,13.77
2023-04-17T07:18:02.781Z,12.87
2023-04-17T07:20:29.516Z,12.60
2023-04-17T07:22:57.294Z,13.77
2023-04-17T07:25:24.122Z,13.70
2023-04-17T07:27:51.171Z,13.80
2023-04-17T07:30:17.842Z,14.00
2023-04-17T07:32:44.620Z,12.83
2023-04-17T07:35:11.472Z,12.43
2023-04-17T07:37:38.143Z,12.70
2023-04-17T07:40:10.104Z,13.07
2023-04-17T07:42:37.052Z,13.40
2023-04-17T07:45:05.162Z,13.27
2023-04-17T07:47:32.027Z,12.63
2023-04-17T07:49:58.820Z,12.87
2023-04-17T07:52:25.599Z,12.80
2023-04-17T07:54:52.238Z,13.33
2023-04-17T07:57:19.078Z,12.10
2023-04-17T07:59:46.545Z,12.10
2023-04-17T08:02:13.482Z,12.33
2023-04-17T08:04:40.488Z,11.90
2023-04-17T08:07:10.550Z,12.10
2023-04-17T08:09:37.345Z,11.77
2023-04-17T08:12:04.267Z,11.77
2023-04-17T08:14:30.974Z,11.67
2023-04-17T08:16:58.133Z,11.33
2023-04-17T08:19:24.995Z,10.43
2023-04-17T08:21:51.695Z,10.00
2023-04-17T08:24:19.968Z,10.23
2023-04-17T08:26:48.053Z,10.33
2023-04-17T08:29:15.126Z,10.17
2023-04-17T08:31:41.936Z,10.80
2023-04-17T08:34:14.493Z,10.47
2023-04-17T08:36:42.931Z,9.97
2023-04-17T08:39:12.021Z,9.10
2023-04-17T08:41:49.212Z,8.63
2023-04-17T08:44:20.597Z,9.30
2023-04-17T08:46:48.607Z,8.20
2023-04-17T08:49:15.742Z,7.77
2023-04-17T08:51:42.888Z,7.47
2023-04-17T08:54:09.686Z,8.10
2023-04-17T08:56:36.433Z,7.73
2023-04-17T08:59:04.426Z,7.00
2023-04-17T09:01:31.105Z,6.87
2023-04-17T09:03:58.196Z,6.23
2023-04-17T09:06:24.996Z,5.80
2023-04-17T09:08:59.809Z,6.20
2023-04-17T09:11:27.211Z,5.97
2023-04-17T09:13:54.343Z,5.93
2023-04-17T09:16:21.378Z,5.00
2023-04-17T09:18:49.255Z,5.20
2023-04-17T09:21:21.344Z,5.77
2023-04-17T09:23:55.208Z,5.90
2023-04-17T09:26:27.317Z,5.47
2023-04-17T09:29:08.622Z,6.60
2023-04-17T09:31:37.356Z,6.50
2023-04-17T09:34:07.711Z,5.67
2023-04-17T09:36:37.012Z,5.90
2023-04-17T09:39:06.014Z,6.10
2023-04-17T09:41:36.287Z,6.30
2023-04-17T09:44:05.355Z,6.10
2023-04-17T09:46:45.767Z,6.27
2023-04-17T09:49:39.591Z,5.60
2023-04-17T09:52:07.134Z,5.97
2023-04-17T09:54:38.295Z,6.10
2023-04-17T09:57:09.950Z,5.93
2023-04-17T09:59:41.144Z,6.10
2023-04-17T10:02:09.347Z,5.27
2023-04-17T10:04:39.328Z,6.37
2023-04-17T10:07:06.563Z,5.87
2023-04-17T10:09:33.289Z,5.13
2023-04-17T10:12:02.054Z,5.20
2023-04-17T10:14:32.592Z,4.93
2023-04-17T10:16:59.746Z,5.03
2023-04-17T10:19:32.023Z,5.50
2023-04-17T10:22:20.112Z,5.07
2023-04-17T10:24:47.907Z,4.70
2023-04-17T10:27:30.982Z,5.90
2023-04-17T10:30:05.507Z,5.17
2023-04-17T10:32:34.596Z,4.50
2023-04-17T10:35:22.191Z,5.23
2023-04-17T10:37:51.575Z,4.77
2023-04-17T10:40:27.120Z,5.17
2023-04-17T10:43:17.634Z,5.60
2023-04-17T10:46:04.786Z,5.47
2023-04-17T10:48:47.772Z,5.23
2023-04-17T10:51:23.248Z,5.93
2023-04-17T10:53:51.686Z,6.00
2023-04-17T10:56:24.202Z,5.37
2023-04-17T10:59:05.248Z,5.70
2023-04-17T11:01:36.938Z,6.00
2023-04-17T11:04:04.530Z,5.73
2023-04-17T11:06:33.114Z,5.13
2023-04-17T11:09:00.792Z,5.27
2023-04-17T11:11:40.489Z,5.10
2023-04-17T11:14:14.421Z,5.80
2023-04-17T11:16:42.798Z,5.97
2023-04-17T11:19:11.128Z,5.67
2023-04-17T11:21:45.693Z,6.07
2023-04-17T11:24:12.489Z,5.23
2023-04-17T11:26:46.171Z,6.33
2023-04-17T11:29:16.826Z,6.17
2023-04-17T11:31:47.589Z,6.27
2023-04-17T11:34:15.953Z,5.90
2023-04-17T11:36:53.941Z,6.30
2023-04-17T11:39:22.609Z,6.30
2023-04-17T11:41:51.420Z,6.53
2023-04-17T11:44:20.134Z,6.40
2023-04-17T11:46:58.460Z,6.07
2023-04-17T11:49:28.798Z,6.93
2023-04-17T11:51:57.637Z,7.30
2023-04-17T11:54:38.705Z,8.77
2023-04-17T11:57:15.184Z,8.80
2023-04-17T11:59:42.737Z,8.37
2023-04-17T12:02:10.019Z,9.30
2023-04-17T12:04:37.815Z,8.53
2023-04-17T12:07:06.311Z,8.13
2023-04-17T12:09:34.381Z,8.33
2023-04-17T12:12:04.470Z,8.00
2023-04-17T12:14:32.117Z,8.00
2023-04-17T12:16:59.316Z,7.83
2023-04-17T12:19:27.197Z,7.53
2023-04-17T12:21:54.451Z,6.70
2023-04-17T12:24:24.004Z,6.37
2023-04-17T12:26:51.603Z,5.70
2023-04-17T12:29:22.060Z,5.80
2023-04-17T12:31:56.486Z,6.07
2023-04-17T12:34:24.230Z,5.80
2023-04-17T12:36:51.608Z,4.80
2023-04-17T12:39:18.868Z,5.43
2023-04-17T12:41:45.625Z,5.37
2023-04-17T12:44:12.930Z,5.70
2023-04-17T12:46:39.743Z,5.57
2023-04-17T12:49:06.424Z,5.90
2023-04-17T12:51:37.830Z,5.87
2023-04-17T12:54:04.943Z,6.10
2023-04-17T12:56:32.124Z,6.43
2023-04-17T12:59:01.337Z,5.47
2023-04-17T13:01:29.705Z,5.27
2023-04-17T13:03:56.605Z,5.77
2023-04-17T13:06:23.572Z,6.07
2023-04-17T13:08:50.299Z,5.60
2023-04-17T13:11:16.985Z,6.10
2023-04-17T13:13:43.647Z,6.10
2023-04-17T13:16:10.522Z,5.90
2023-04-17T13:18:37.605Z,6.07
2023-04-17T13:21:04.358Z,5.60
2023-04-17T13:23:31.220Z,6.23
2023-04-17T13:25:57.885Z,5.50
2023-04-17T13:28:24.596Z,5.93
2023-04-17T13:30:52.530Z,5.67
2023-04-17T13:33:19.261Z,5.73
2023-04-17T13:35:45.933Z,5.80
2023-04-17T13:38:12.577Z,6.53
2023-04-17T13:40:40.764Z,6.40
2023-04-17T13:43:07.480Z,6.10
2023-04-17T13:45:34.176Z,5.57
2023-04-17T13:48:01.277Z,5.27
2023-04-17T13:50:28.025Z,5.10
2023-04-17T13:52:54.718Z,6.60
2023-04-17T13:55:21.400Z,5.40
2023-04-17T13:57:48.147Z,4.87
2023-04-17T14:00:15.268Z,4.90
2023-04-17T14:02:42.646Z,4.60
2023-04-17T14:05:09.867Z,3.90
2023-04-17T14:07:37.856Z,3.00
2023-04-17T14:10:04.982Z,1.90
2023-04-17T14:12:31.666Z,1.70
2023-04-17T14:14:58.442Z,2.07
2023-04-17T14:17:25.431Z,1.87
2023-04-17T14:19:52.891Z,1.93
2023-04-17T14:22:20.045Z,1.80
2023-04-17T14:24:46.715Z,2.10
2023-04-17T14:27:13.386Z,2.30
2023-04-17T14:29:40.105Z,2.37
2023-04-17T14:32:06.794Z,2.73
2023-04-17T14:34:33.453Z,2.10
2023-04-17T14:37:00.219Z,2.20
2023-04-17T14:39:28.342Z,3.60
2023-04-17T14:41:58.958Z,2.30
2023-04-17T14:44:27.332Z,1.60
2023-04-17T14:46:54.113Z,1.70
2023-04-17T14:49:20.833Z,2.37
2023-04-17T14:51:47.485Z,2.63
2023-04-17T14:54:15.553Z,2.87
2023-04-17T14:56:42.461Z,2.03
2023-04-17T14:59:09.113Z,2.13
2023-04-17T15:01:35.766Z,1.97
2023-04-17T15:04:03.734Z,2.00
2023-04-17T15:06:30.684Z,2.87
2023-04-17T15:08:57.831Z,2.10
2023-04-17T15:11:24.618Z,2.63
2023-04-17T15:13:51.518Z,3.37
2023-04-17T15:16:18.255Z,2.30
2023-04-17T15:18:44.918Z,3.23
2023-04-17T15:21:11.572Z,2.60
2023-04-17T15:23:38.297Z,1.90
2023-04-17T15:26:05.172Z,1.80
2023-04-17T15:28:33.020Z,1.80
2023-04-17T15:31:02.157Z,1.60
2023-04-17T15:33:28.904Z,1.60
2023-04-17T15:35:57.925Z,4.10
2023-04-17T15:38:25.367Z,4.17
2023-04-17T15:40:52.073Z,2.30
2023-04-17T15:43:19.099Z,2.70
2023-04-17T15:45:48.106Z,2.27
2023-04-17T15:48:15.763Z,2.00
2023-04-17T15:50:42.508Z,2.73
2023-04-17T15:53:09.757Z,2.03
2023-04-17T15:55:36.996Z,2.40
2023-04-17T15:58:03.922Z,2.53
2023-04-17T16:00:31.267Z,2.10
2023-04-17T16:02:58.067Z,2.10
2023-04-17T16:05:24.863Z,2.43
2023-04-17T16:07:51.590Z,2.10
2023-04-17T16:10:18.875Z,2.10
2023-04-17T16:12:46.235Z,1.73
2023-04-17T16:15:17.263Z,1.90
2023-04-17T16:17:45.457Z,2.00
2023-04-17T16:20:13.797Z,2.00
2023-04-17T16:22:40.790Z,2.90
2023-04-17T16:25:07.994Z,2.70
2023-04-17T16:27:34.876Z,2.50
2023-04-17T16:30:02.906Z,2.77
2023-04-17T16:32:31.533Z,2.50
2023-04-17T16:34:58.359Z,4.07
2023-04-17T16:37:25.104Z,2.07
2023-04-17T16:39:51.796Z,2.30
2023-04-17T16:42:18.455Z,2.17
2023-04-17T16:44:48.053Z,1.90
2023-04-17T16:47:15.150Z,1.87
2023-04-17T16:49:42.584Z,2.30
2023-04-17T16:52:09.462Z,2.50
2023-04-17T16:54:36.115Z,2.27
2023-04-17T16:57:02.816Z,1.83
2023-04-17T16:59:29.505Z,2.60
2023-04-17T17:01:56.236Z,2.43
2023-04-17T17:04:23.058Z,2.20
2023-04-17T17:06:49.889Z,2.30
2023-04-17T17:09:16.558Z,2.43
2023-04-17T17:11:43.228Z,2.17
2023-04-17T17:14:09.970Z,2.13
2023-04-17T17:16:36.915Z,3.23
2023-04-17T17:19:03.923Z,2.20
2023-04-17T17:21:31.074Z,2.20
2023-04-17T17:23:57.874Z,2.60
2023-04-17T17:26:24.962Z,2.03
2023-04-17T17:28:53.161Z,1.80
2023-04-17T17:31:20.428Z,2.90
2023-04-17T17:33:50.226Z,2.80
2023-04-17T17:36:17.423Z,2.43
2023-04-17T17:38:44.659Z,2.60
2023-04-17T17:41:11.388Z,2.47
2023-04-17T17:43:38.152Z,2.43
2023-04-17T17:46:05.285Z,2.50
2023-04-17T17:48:33.678Z,2.57
2023-04-17T17:51:00.340Z,2.63
2023-04-17T17:53:27.300Z,2.27
2023-04-17T17:55:55.675Z,2.87
2023-04-17T17:58:22.863Z,2.37
2023-04-17T18:00:50.328Z,2.43
2023-04-17T18:03:17.780Z,3.30
2023-04-17T18:05:46.313Z,3.03
2023-04-17T18:08:13.627Z,3.50
2023-04-17T18:10:40.352Z,3.50
2023-04-17T18:13:07.076Z,3.07
2023-04-17T18:15:34.041Z,3.70
2023-04-17T18:18:00.900Z,9.50
2023-04-17T18:20:27.729Z,10.83
2023-04-17T18:22:54.495Z,6.07
2023-04-17T18:25:21.315Z,3.87
2023-04-17T18:27:47.954Z,7.80
2023-04-17T18:30:15.273Z,3.73
2023-04-17T18:32:41.921Z,4.60
2023-04-17T18:35:08.984Z,3.73
2023-04-17T18:37:35.813Z,4.87
2023-04-17T18:40:02.635Z,5.60
2023-04-17T18:42:29.317Z,7.40
2023-04-17T18:44:56.054Z,7.93
2023-04-17T18:47:22.800Z,7.27
2023-04-17T18:49:53.033Z,7.97
2023-04-17T18:52:19.840Z,5.47
2023-04-17T18:54:46.498Z,4.93
2023-04-17T18:57:13.123Z,4.47
2023-04-17T18:59:40.981Z,5.03
2023-04-17T19:02:09.435Z,4.77
2023-04-17T19:04:36.069Z,5.67
2023-04-17T19:07:02.790Z,7.67
2023-04-17T19:09:29.427Z,6.07
2023-04-17T19:11:57.365Z,5.80
2023-04-17T19:14:24.628Z,6.13
2023-04-17T19:16:51.845Z,5.37
2023-04-17T19:19:18.498Z,6.13
2023-04-17T19:21:45.147Z,4.93
2023-04-17T19:24:11.864Z,4.87
2023-04-17T19:26:38.539Z,4.73
2023-04-17T19:29:05.459Z,4.03
2023-04-17T19:31:32.924Z,3.40
2023-04-17T19:34:00.350Z,3.00
2023-04-17T19:36:28.001Z,2.97
2023-04-17T19:38:55.694Z,2.50
2023-04-17T19:41:22.358Z,2.67
2023-04-17T19:43:51.109Z,2.40
2023-04-17T19:46:19.042Z,2.40
2023-04-17T19:48:47.089Z,3.23
2023-04-17T19:51:14.471Z,4.73
2023-04-17T19:53:42.999Z,4.63
2023-04-17T19:56:10.423Z,4.53
2023-04-17T19:58:38.153Z,4.77
2023-04-17T20:01:05.122Z,5.37
2023-04-17T20:03:32.703Z,5.10
2023-04-17T20:06:00.231Z,5.27
2023-04-17T20:08:27.080Z,5.60
2023-04-17T20:10:54.130Z,5.07
2023-04-17T20:13:21.336Z,6.10
2023-04-17T20:15:48.111Z,6.43
2023-04-17T20:18:14.926Z,6.90
2023-04-17T20:20:41.575Z,5.80
2023-04-17T20:23:08.346Z,5.80
2023-04-17T20:25:34.978Z,4.77
2023-04-17T20:28:04.717Z,5.20
2023-04-17T20:30:31.522Z,4.60
2023-04-17T20:32:58.407Z,4.47
2023-04-17T20:35:25.195Z,5.20
2023-04-17T20:37:52.416Z,4.97
2023-04-17T20:40:19.987Z,4.67
2023-04-17T20:42:47.373Z,4.50
2023-04-17T20:45:14.360Z,3.87
2023-04-17T20:47:56.000Z,3.67
2023-04-17T20:50:23.641Z,3.67
2023-04-17T20:52:50.485Z,3.53
2023-04-17T20:55:18.652Z,4.07
2023-04-17T20:57:45.920Z,4.10
2023-04-17T21:00:13.209Z,3.27
2023-04-17T21:02:40.419Z,2.80
2023-04-17T21:05:08.124Z,3.07
2023-04-17T21:07:35.415Z,3.03
2023-04-17T21:10:02.189Z,3.37
2023-04-17T21:12:29.063Z,3.10
2023-04-17T21:14:55.683Z,3.00
2023-04-17T21:17:22.395Z,3.23
2023-04-17T21:19:49.291Z,3.47
2023-04-17T21:22:16.134Z,3.20
2023-04-17T21:24:42.874Z,3.60
2023-04-17T21:27:10.319Z,3.80
2023-04-17T21:29:37.308Z,3.53
2023-04-17T21:32:04.287Z,3.37
2023-04-17T21:34:30.992Z,3.70
2023-04-17T21:37:02.078Z,3.33
2023-04-17T21:39:32.282Z,3.53
2023-04-17T21:41:59.742Z,3.40
2023-04-17T21:44:26.497Z,3.87
2023-04-17T21:46:53.272Z,3.40
2023-04-17T21:49:20.856Z,3.50
2023-04-17T21:51:47.545Z,3.30
2023-04-17T21:54:14.596Z,3.80
2023-04-17T21:56:41.575Z,3.47
2023-04-17T21:59:08.328Z,3.47
2023-04-17T22:01:35.121Z,3.50
2023-04-17T22:04:01.835Z,3.23
2023-04-17T22:06:28.521Z,3.20
2023-04-17T22:08:55.224Z,2.77
2023-04-17T22:11:22.946Z,3.67
2023-04-17T22:13:49.586Z,3.80
2023-04-17T22:16:16.337Z,4.00
2023-04-17T22:18:43.071Z,3.30
2023-04-17T22:21:09.721Z,3.73
2023-04-17T22:23:36.409Z,4.60
2023-04-17T22:26:03.192Z,3.80
2023-04-17T22:28:31.240Z,3.70
2023-04-17T22:30:58.822Z,4.40
2023-04-17T22:33:26.090Z,3.90
2023-04-17T22:35:53.055Z,3.63
2023-04-17T22:38:21.028Z,4.10
2023-04-17T22:40:48.520Z,4.17
2023-04-17T22:43:15.509Z,4.50
2023-04-17T22:45:43.158Z,3.53
2023-04-17T22:48:09.892Z,3.97
2023-04-17T22:50:37.704Z,3.93
2023-04-17T22:53:04.529Z,3.77
2023-04-17T22:55:31.229Z,3.30
2023-04-17T22:57:57.928Z,3.50
2023-04-17T23:00:25.270Z,3.60
2023-04-17T23:02:52.217Z,3.73
2023-04-17T23:05:19.008Z,3.67
2023-04-17T23:07:45.746Z,3.27
2023-04-17T23:10:12.393Z,3.60
2023-04-17T23:12:39.115Z,4.03
2023-04-17T23:15:08.136Z,3.43
2023-04-17T23:17:35.070Z,3.90
2023-04-17T23:20:01.783Z,4.10
2023-04-17T23:22:28.503Z,4.03
2023-04-17T23:24:56.650Z,4.00
2023-04-17T23:27:23.316Z,4.37
2023-04-17T23:29:49.948Z,3.63
2023-04-17T23:32:16.677Z,3.87
2023-04-17T23:34:43.503Z,3.43
2023-04-17T23:37:10.187Z,3.57
2023-04-17T23:39:36.809Z,3.73
2023-04-17T23:42:07.247Z,3.90
2023-04-17T23:44:34.562Z,4.33
2023-04-17T23:47:01.939Z,3.60
2023-04-17T23:49:28.880Z,3.97
2023-04-17T23:51:55.635Z,3.87
2023-04-17T23:54:22.321Z,4.23
2023-04-17T23:56:49.028Z,3.97
2023-04-17T23:59:15.700Z,4.23
